Latest Weather Observations for Moruya Airport

IDN60901

Issued at 7:11 pm EDT Wednesday 25 November 2020 (issued every 10 minutes, with the page automatically refreshed every 10 minutes)

About weather observations | Map of Canberra area stations | Latest observations for Canberra area | Other Formats
Station Details ID: 069148 Name: MORUYA AIRPORT AWS Lat: -35.90 Lon: 150.14 Height: 4.0 m
Data from the previous 72 hours. | See also: Recent months at Moruya Airport
Date/Time
EDT
Temp
°C
App
Temp
°C
Dew
Point
°C
Rel
Hum
%
Delta-T
°C
Wind Press
QNH
hPa
Press
MSL
hPa
Rain since
9am
mm
Dir  Spd
km/h
Gust
km/h
Spd
kts
Gust
kts
25/07:00pm 20.3 17.0 16.1 77 2.5 NNE 28 37 15 20 1008.9 1008.8 0.0
25/06:30pm 20.7 17.0 16.1 75 2.8 NNE 30 39 16 21 1008.5 1008.4 0.0
25/06:00pm 21.0 16.8 16.2 74 2.9 NNE 33 43 18 23 1008.4 1008.3 0.0
25/05:30pm 21.2 16.9 16.0 72 3.1 NNE 33 44 18 24 1008.3 1008.2 0.0
25/05:00pm 21.3 16.6 15.8 71 3.3 NNE 35 46 19 25 1008.5 1008.4 0.0
25/04:30pm 21.8 17.6 16.1 70 3.4 NNE 33 46 18 25 1008.8 1008.7 0.0
25/04:00pm 21.7 17.4 16.0 70 3.4 NE 33 44 18 24 1009.2 1009.1 0.0
25/03:30pm 21.7 17.5 15.8 69 3.5 NE 32 41 17 22 1009.7 1009.6 0.0
25/03:00pm 21.7 17.2 15.5 68 3.7 NE 33 44 18 24 1010.3 1010.2 0.0
25/02:30pm 21.3 16.7 14.7 66 3.9 NE 32 43 17 23 1010.7 1010.6 0.0
25/02:00pm 21.6 17.6 15.2 67 3.8 NE 30 39 16 21 1011.3 1011.2 0.0
25/01:30pm 21.6 17.0 14.7 65 4.1 NE 32 44 17 24 1011.8 1011.7 0.0
25/01:00pm 21.1 16.3 14.0 64 4.1 NE 32 44 17 24 1012.2 1012.1 0.0
25/12:30pm 21.5 17.2 14.4 64 4.2 NE 30 39 16 21 1012.6 1012.5 0.0
25/12:00pm 20.9 17.4 14.5 67 3.7 NE 26 35 14 19 1013.2 1013.1 0.0
25/11:30am 21.4 18.3 14.6 65 4.0 NE 24 32 13 17 1013.6 1013.5 0.0
25/11:00am 21.1 18.6 14.0 64 4.1 NNE 20 28 11 15 1014.2 1014.1 0.0
25/10:30am 21.2 19.3 12.9 59 4.7 N 15 20 8 11 1014.4 1014.3 0.0
25/10:00am 19.8 17.1 13.0 65 3.8 NE 19 24 10 13 1014.8 1014.7 0.0
25/09:30am 19.8 17.4 12.6 63 4.0 N 17 24 9 13 1014.7 1014.6 0.0
25/09:00am 19.4 17.5 12.9 66 3.7 NE 15 20 8 11 1014.9 1014.8 0.0
25/08:30am 18.7 18.0 13.3 71 3.1 N 9 13 5 7 1015.2 1015.1 0.0
25/08:00am 18.0 17.5 13.7 76 2.4 NNW 9 13 5 7 1015.1 1015.0 0.0
25/07:30am 17.4 16.5 13.7 79 2.1 NNW 11 15 6 8 1014.8 1014.7 0.0
25/07:00am 16.9 18.2 14.2 84 1.5 CALM 0 6 0 3 1014.5 1014.4 0.0
25/06:30am 16.6 17.9 14.1 85 1.4 CALM 0 0 0 0 1014.5 1014.4 0.0
25/06:00am 16.5 17.8 14.0 85 1.4 CALM 0 0 0 0 1014.2 1014.1 0.0
25/05:30am 16.5 17.8 14.0 85 1.4 CALM 0 0 0 0 1013.9 1013.8 0.0
25/05:00am 16.6 17.8 13.7 83 1.6 CALM 0 0 0 0 1013.7 1013.6 0.0
25/04:30am 16.6 17.7 13.5 82 1.7 CALM 0 0 0 0 1013.5 1013.4 0.0
25/04:00am 16.6 16.6 13.5 82 1.7 WNW 6 6 3 3 1013.7 1013.6 0.0
25/03:30am 16.7 16.7 13.6 82 1.7 WNW 6 9 3 5 1013.9 1013.8 0.0
25/03:00am 16.7 16.7 13.6 82 1.7 SSE 6 7 3 4 1014.0 1013.9 0.0
25/02:30am 16.8 18.0 13.7 82 1.8 CALM 0 0 0 0 1014.0 1013.9 0.0
25/02:00am 17.0 18.0 13.3 79 2.1 CALM 0 0 0 0 1014.1 1014.0 0.0
25/01:30am 17.5 18.4 13.0 75 2.5 CALM 0 0 0 0 1014.4 1014.3 0.0
25/01:00am 17.9 17.4 12.6 71 2.9 SE 7 9 4 5 1014.7 1014.6 0.0
25/12:30am 17.9 17.3 12.4 70 3.0 SE 7 11 4 6 1015.0 1014.9 0.0
25/12:00am 17.9 17.0 12.6 71 2.9 SE 9 13 5 7 1015.3 1015.2 0.0
 
Date/Time
EDT
Temp
°C
App
Temp
°C
Dew
Point
°C
Rel
Hum
%
Delta-T
°C
Wind Press
QNH
hPa
Press
MSL
hPa
Rain since
9am
mm
Dir  Spd
km/h
Gust
km/h
Spd
kts
Gust
kts
24/11:30pm 17.9 17.1 13.0 73 2.7 SE 9 13 5 7 1015.4 1015.3 0.0
24/11:00pm 17.9 17.1 12.8 72 2.8 SE 9 13 5 7 1015.4 1015.3 0.0
24/10:30pm 17.8 16.6 12.7 72 2.8 SSE 11 15 6 8 1015.4 1015.3 0.0
24/10:00pm 18.0 16.8 12.9 72 2.9 SE 11 17 6 9 1015.3 1015.2 0.0
24/09:30pm 17.9 16.2 12.6 71 2.9 SE 13 17 7 9 1015.1 1015.0 0.0
24/09:00pm 17.9 15.8 12.4 70 3.0 SE 15 20 8 11 1014.7 1014.6 0.0
24/08:30pm 18.0 15.8 12.2 69 3.2 SE 15 20 8 11 1014.4 1014.3 0.0
24/08:00pm 18.0 16.0 12.7 71 3.0 SE 15 20 8 11 1014.1 1014.0 0.0
24/07:30pm 18.1 15.4 12.8 71 3.0 SE 19 24 10 13 1013.9 1013.8 0.0
24/07:00pm 18.4 16.1 13.1 71 3.0 SE 17 20 9 11 1013.4 1013.3 0.0
24/06:30pm 18.9 16.8 13.5 71 3.1 SE 17 26 9 14 1012.9 1012.8 0.0
24/06:00pm 18.8 16.6 13.2 70 3.2 SE 17 24 9 13 1012.4 1012.3 0.0
24/05:30pm 19.3 17.6 13.5 69 3.3 SE 15 20 8 11 1012.1 1012.0 0.0
24/05:00pm 19.7 17.7 13.9 69 3.3 ESE 17 24 9 13 1011.8 1011.7 0.0
24/04:30pm 19.8 17.2 13.3 66 3.7 ESE 19 24 10 13 1011.5 1011.4 0.0
24/04:00pm 20.3 17.7 13.3 64 4.0 ESE 19 24 10 13 1011.5 1011.4 0.0
24/03:30pm 20.3 17.7 13.3 64 4.0 ESE 19 22 10 12 1011.5 1011.4 0.0
24/03:00pm 20.5 18.1 13.7 65 3.9 ESE 19 22 10 12 1011.4 1011.3 0.0
24/02:30pm 20.5 18.1 13.9 66 3.8 ESE 19 24 10 13 1011.7 1011.6 0.0
24/02:00pm 20.6 18.3 14.0 66 3.8 ESE 19 24 10 13 1011.7 1011.6 0.0
24/01:30pm 20.4 17.4 13.6 65 3.9 ESE 22 28 12 15 1011.7 1011.6 0.0
24/01:00pm 20.4 17.5 12.9 62 4.3 ESE 20 26 11 14 1012.0 1011.9 0.0
24/12:30pm 21.0 18.4 13.9 64 4.1 ESE 20 24 11 13 1012.1 1012.0 0.0
24/12:00pm 20.4 18.0 12.6 61 4.4 E 17 20 9 11 1012.1 1012.0 0.0
24/11:30am 20.7 18.8 12.9 61 4.4 E 15 19 8 10 1011.9 1011.8 0.0
24/11:00am 20.9 19.6 13.6 63 4.2 ESE 13 17 7 9 1011.8 1011.7 0.0
24/10:30am 20.1 19.2 13.6 66 3.7 E 11 15 6 8 1012.0 1011.9 0.0
24/10:00am 20.1 18.4 12.6 62 4.2 ESE 13 19 7 10 1012.0 1011.9 0.0
24/09:30am 19.9 18.8 13.1 65 3.9 ESE 11 15 6 8 1012.2 1012.1 0.0
24/09:00am 19.0 18.9 13.2 69 3.3 SE 6 11 3 6 1012.3 1012.2 10.4
24/08:30am 19.0 18.1 13.6 71 3.1 S 11 15 6 8 1012.0 1011.9 10.4
24/08:00am 17.0 17.0 14.3 84 1.5 SW 7 9 4 5 1011.5 1011.4 10.4
24/07:30am 16.4 17.1 15.6 95 0.5 SW 6 7 3 4 1011.1 1011.0 10.4
24/07:00am 15.3 16.4 14.7 96 0.3 NW 2 9 1 5 1010.9 1010.8 10.4
24/06:39am 13.9 14.9 13.3 96 0.3 CALM 0 0 0 0 1010.7 1010.6 10.4
24/06:30am 13.3 14.1 12.7 96 0.3 CALM 0 0 0 0 1010.7 1010.6 10.4
24/06:21am 13.0 13.8 12.4 96 0.3 CALM 0 0 0 0 1010.7 1010.6 10.4
24/06:19am 13.0 13.8 12.4 96 0.3 CALM 0 0 0 0 1010.7 1010.6 10.4
24/06:00am 12.6 13.2 12.0 96 0.3 CALM 0 0 0 0 1010.5 1010.4 10.4
24/05:30am 12.3 12.8 11.7 96 0.3 CALM 0 0 0 0 1010.1 1010.0 10.4
24/05:00am 12.8 12.3 12.2 96 0.3 W 6 9 3 5 1009.8 1009.7 10.4
24/04:30am 13.4 12.6 12.8 96 0.3 NW 9 11 5 6 1009.5 1009.4 10.4
24/04:15am 12.8 12.3 12.2 96 0.3 W 6 9 3 5 1009.4 1009.3 10.4
24/04:03am 13.3 12.1 12.7 96 0.3 SW 11 15 6 8 1009.2 1009.1 10.4
24/04:00am 13.0 12.4 12.4 96 0.3 SW 7 13 4 7 1009.3 1009.2 10.4
24/03:55am 13.5 14.0 12.9 96 0.3 WSW 2 9 1 5 1009.3 1009.2 10.4
24/03:46am 13.4 14.3 12.8 96 0.3 CALM 0 0 0 0 1009.3 1009.2 10.4
24/03:30am 13.4 13.5 12.6 95 0.4 WNW 4 7 2 4 1009.0 1008.9 10.4
24/03:27am 13.1 13.4 12.3 95 0.4 WNW 2 7 1 4 1009.0 1008.9 10.4
24/03:10am 13.3 13.3 12.5 95 0.4 WNW 4 7 2 4 1009.2 1009.1 10.4
24/03:00am 13.3 12.9 12.5 95 0.4 NW 6 7 3 4 1009.2 1009.1 10.4
24/02:30am 13.4 13.5 12.6 95 0.4 WNW 4 7 2 4 1009.1 1009.0 10.4
24/02:00am 13.7 14.6 12.9 95 0.4 CALM 0 0 0 0 1009.2 1009.1 10.4
24/01:39am 13.6 13.3 12.7 94 0.5 NW 6 9 3 5 1009.4 1009.3 10.4
24/01:32am 14.2 14.1 13.4 95 0.4 WNW 6 7 3 4 1009.4 1009.3 10.4
24/01:30am 14.0 13.8 13.1 94 0.5 WNW 6 7 3 4 1009.4 1009.3 10.4
24/01:00am 14.1 14.3 13.1 94 0.6 WNW 4 7 2 4 1009.6 1009.5 10.4
24/12:39am 15.1 16.4 14.1 94 0.6 CALM 0 0 0 0 1009.7 1009.6 10.4
24/12:30am 15.1 16.4 14.0 93 0.6 CALM 0 0 0 0 1009.8 1009.7 10.2
24/12:17am 14.9 14.8 13.8 93 0.6 WNW 7 9 4 5 1009.8 1009.7 10.2
24/12:16am 14.9 14.8 13.8 93 0.6 WNW 7 9 4 5 1009.7 1009.6 10.2
24/12:00am 15.2 15.4 14.1 93 0.6 WNW 6 7 3 4 1009.6 1009.5 10.2
 
Date/Time
EDT
Temp
°C
App
Temp
°C
Dew
Point
°C
Rel
Hum
%
Delta-T
°C
Wind Press
QNH
hPa
Press
MSL
hPa
Rain since
9am
mm
Dir  Spd
km/h
Gust
km/h
Spd
kts
Gust
kts
23/11:55pm 15.2 15.3 13.9 92 0.7 W 6 7 3 4 1009.6 1009.5 10.2
23/11:30pm 15.6 15.7 14.0 90 0.9 NNW 6 7 3 4 1009.2 1009.1 10.2
23/11:00pm 17.2 16.9 15.5 90 1.0 SSW 11 15 6 8 1009.0 1008.9 10.2
23/10:30pm 16.8 17.0 15.7 93 0.6 S 9 13 5 7 1008.7 1008.6 10.2
23/10:00pm 16.9 17.7 15.8 93 0.6 SSW 6 15 3 8 1008.6 1008.5 10.2
23/09:30pm 16.1 16.5 14.8 92 0.7 WNW 6 9 3 5 1008.3 1008.2 10.2
23/09:20pm 16.4 18.1 15.1 92 0.8 CALM 0 0 0 0 1008.1 1008.0 10.2
23/09:09pm 16.3 17.9 14.8 91 0.9 CALM 0 0 0 0 1007.8 1007.7 10.2
23/09:00pm 16.5 18.1 15.0 91 0.9 CALM 0 0 0 0 1007.6 1007.5 10.2
23/08:30pm 17.5 17.5 15.3 87 1.3 SSW 9 13 5 7 1007.4 1007.3 10.2
23/08:00pm 17.7 18.3 15.9 89 1.1 ESE 7 13 4 7 1007.3 1007.2 10.2
23/07:30pm 17.9 18.5 15.9 88 1.2 W 7 11 4 6 1007.0 1006.9 10.2
23/07:00pm 17.9 16.0 15.7 87 1.3 S 20 26 11 14 1006.5 1006.4 10.2
23/06:51pm 17.9 15.2 15.7 87 1.3 S 24 33 13 18 1006.4 1006.3 10.2
23/06:33pm 18.2 14.9 16.0 87 1.3 SSE 28 41 15 22 1006.2 1006.1 9.2
23/06:30pm 18.7 15.8 16.1 85 1.5 SSE 26 41 14 22 1006.2 1006.1 8.2
23/06:27pm 19.3 16.3 16.9 86 1.5 SSE 28 41 15 22 1006.2 1006.1 8.0
23/06:00pm 20.3 19.7 16.7 80 2.2 SE 15 22 8 12 1005.1 1005.0 7.4
23/05:30pm 21.3 22.6 17.5 79 2.3 SSE 7 11 4 6 1004.7 1004.6 7.4
23/05:00pm 20.7 20.1 16.7 78 2.4 SSE 15 20 8 11 1004.3 1004.2 7.4
23/04:30pm 22.6 22.9 16.9 70 3.5 S 11 15 6 8 1003.6 1003.5 7.4
23/04:00pm 22.0 21.6 17.2 74 3.0 SSE 15 24 8 13 1003.5 1003.4 7.4
23/03:30pm 21.5 23.2 18.5 83 1.9 S 7 13 4 7 1003.2 1003.1 7.4
23/03:00pm 19.8 20.3 16.6 82 1.9 E 9 11 5 6 1002.0 1001.9 7.4
23/02:51pm 19.5 20.4 16.5 83 1.8 E 7 11 4 6 1002.0 1001.9 7.4
23/02:30pm 19.7 19.0 16.3 81 2.0 WSW 15 22 8 12 1004.1 1004.0 6.4
23/02:08pm 20.2 19.6 17.6 85 1.6 WSW 17 28 9 15 1004.0 1003.9 5.8
23/02:02pm 20.2 19.3 17.8 86 1.5 WSW 19 28 10 15 1003.8 1003.7 5.6
23/02:00pm 20.1 19.6 17.9 87 1.4 W 17 24 9 13 1003.7 1003.6 5.6
23/01:54pm 20.1 19.7 18.1 88 1.2 W 17 28 9 15 1003.6 1003.5 5.4
23/01:30pm 21.9 23.9 18.7 82 2.0 WSW 6 15 3 8 1003.3 1003.2 2.0
23/01:24pm 22.2 24.1 18.6 80 2.3 W 6 13 3 7 1003.5 1003.4 1.2
23/01:00pm 22.9 24.1 17.4 71 3.4 SE 7 15 4 8 1003.0 1002.9 0.0
23/12:30pm 24.5 27.3 18.0 67 4.1 CALM 0 0 0 0 1003.2 1003.1 0.0
23/12:00pm 24.5 26.2 17.2 63 4.5 NNE 4 9 2 5 1003.6 1003.5 0.0
23/11:30am 25.0 26.3 17.5 63 4.7 NNE 7 11 4 6 1003.7 1003.6 0.0
23/11:00am 24.6 26.4 17.3 64 4.5 NW 4 11 2 6 1004.5 1004.4 0.0
23/10:30am 24.7 25.9 18.2 67 4.1 WNW 9 15 5 8 1005.0 1004.9 0.0
23/10:00am 23.5 25.6 18.2 72 3.3 W 4 9 2 5 1004.7 1004.6 0.0
23/09:30am 22.0 22.7 18.0 78 2.5 NNW 11 15 6 8 1004.0 1003.9 0.0
23/09:00am 22.2 22.5 16.9 72 3.3 NW 11 17 6 9 1005.2 1005.1 4.8
23/08:30am 22.0 22.4 17.2 74 2.9 NNW 11 17 6 9 1006.0 1005.9 4.8
23/08:00am 21.4 23.3 18.6 84 1.8 N 6 9 3 5 1006.1 1006.0 4.8
23/07:30am 21.0 23.8 18.9 88 1.3 N 2 9 1 5 1006.3 1006.2 4.8
23/07:00am 19.6 21.4 18.3 92 0.8 NW 6 11 3 6 1006.4 1006.3 4.8
23/06:30am 19.3 21.0 18.0 92 0.8 NNW 6 9 3 5 1006.9 1006.8 4.8
23/06:00am 19.6 22.0 17.9 90 1.0 WSW 2 6 1 3 1007.0 1006.9 4.8
23/05:30am 19.7 21.1 17.7 88 1.2 N 7 13 4 7 1007.1 1007.0 4.8
23/05:00am 19.8 20.1 17.8 88 1.2 N 13 19 7 10 1007.6 1007.5 4.8
23/04:30am 19.5 20.5 17.8 90 1.0 NNW 9 15 5 8 1007.8 1007.7 4.6
23/04:00am 19.4 21.7 17.7 90 1.0 W 2 7 1 4 1007.7 1007.6 4.6
23/03:30am 19.9 20.2 17.9 88 1.2 WNW 13 19 7 10 1008.4 1008.3 4.4
23/03:00am 20.2 19.8 18.0 87 1.4 WNW 17 28 9 15 1009.4 1009.3 3.4
23/02:30am 20.3 20.7 18.1 87 1.4 WNW 13 24 7 13 1009.5 1009.4 1.6
23/02:00am 19.6 20.7 18.1 91 0.9 WNW 9 13 5 7 1009.3 1009.2 0.2
23/01:30am 19.3 21.4 18.0 92 0.8 NW 4 9 2 5 1008.9 1008.8 0.0
23/01:00am 19.1 20.4 17.6 91 0.9 WSW 7 9 4 5 1009.1 1009.0 0.0
23/12:30am 19.2 20.7 17.5 90 1.0 WNW 6 7 3 4 1009.4 1009.3 0.0
23/12:00am 19.5 22.1 17.6 89 1.2 CALM 0 0 0 0 1009.8 1009.7 0.0
 
Date/Time
EDT
Temp
°C
App
Temp
°C
Dew
Point
°C
Rel
Hum
%
Delta-T
°C
Wind Press
QNH
hPa
Press
MSL
hPa
Rain since
9am
mm
Dir  Spd
km/h
Gust
km/h
Spd
kts
Gust
kts
22/11:30pm 19.8 21.3 18.1 90 1.1 E 7 9 4 5 1010.7 1010.6 0.0
22/11:19pm 19.7 21.3 17.8 89 1.2 ENE 6 9 3 5 1010.8 1010.7 0.0
22/11:08pm 19.7 22.4 17.8 89 1.2 CALM 0 0 0 0 1011.2 1011.1 0.0
22/11:00pm 19.7 22.4 17.8 89 1.2 CALM 0 0 0 0 1011.3 1011.2 0.0
22/10:30pm 19.5 20.5 17.8 90 1.0 N 9 11 5 6 1011.4 1011.3 0.0
22/10:00pm 19.8 22.5 17.8 88 1.2 CALM 0 6 0 3 1011.4 1011.3 0.0
22/09:30pm 20.1 21.5 17.7 86 1.5 NE 7 13 4 7 1011.3 1011.2 0.0
22/09:00pm 20.3 22.9 17.5 84 1.7 CALM 0 0 0 0 1011.7 1011.6 0.0
22/08:30pm 20.4 21.0 17.6 84 1.7 SE 11 15 6 8 1011.3 1011.2 0.0
22/08:00pm 21.7 23.3 17.9 79 2.4 SE 6 11 3 6 1011.4 1011.3 0.0
22/07:30pm 21.3 23.6 17.7 80 2.2 S 2 7 1 4 1010.5 1010.4 0.0

Latest Capital City Observations: Canberra | Sydney | Melbourne | Brisbane | Adelaide | Perth | Hobart | Darwin

Other formats

Comma delimited format used in spreadsheet applications
http://www.bom.gov.au/fwo/IDN60903/IDN60903.95937.axf

JavaScript Object Notation format (JSON) in row-major order
http://www.bom.gov.au/fwo/IDN60903/IDN60903.95937.json

Data quality

Most of these data are generated automatically and are frequently updated. Quality checks on data are not normally performed. It is possible for incorrect values to appear. Refer to information at About Latest Weather Observations and please check the disclaimer before using these data.